sensor_id;sensor_type;location;lat;lon;timestamp;pressure;altitude;pressure_sealevel;temperature;humidity
41624;BME280;27319;50.306;18.926;2023-12-22T00:02:49;95530.19;;;4.08;81.54
41624;BME280;27319;50.306;18.926;2023-12-22T00:06:50;95537.03;;;4.13;81.26
41624;BME280;27319;50.306;18.926;2023-12-22T00:10:51;95539.06;;;4.05;80.92
41624;BME280;27319;50.306;18.926;2023-12-22T00:14:52;95556.03;;;3.99;81.84
41624;BME280;27319;50.306;18.926;2023-12-22T00:18:52;95546.63;;;4.10;80.87
41624;BME280;27319;50.306;18.926;2023-12-22T00:22:53;95551.22;;;4.10;80.10
41624;BME280;27319;50.306;18.926;2023-12-22T00:26:54;95569.56;;;4.11;80.84
41624;BME280;27319;50.306;18.926;2023-12-22T00:30:35;95581.78;;;4.12;81.15
41624;BME280;27319;50.306;18.926;2023-12-22T00:33:36;95592.88;;;4.14;80.22
41624;BME280;27319;50.306;18.926;2023-12-22T00:36:37;95594.66;;;4.21;78.60
41624;BME280;27319;50.306;18.926;2023-12-22T00:39:57;95577.13;;;4.16;79.11
41624;BME280;27319;50.306;18.926;2023-12-22T00:43:58;95582.47;;;4.16;77.40
41624;BME280;27319;50.306;18.926;2023-12-22T00:47:59;95577.13;;;4.16;78.21
41624;BME280;27319;50.306;18.926;2023-12-22T00:52:00;95587.97;;;4.09;77.52
41624;BME280;27319;50.306;18.926;2023-12-22T00:56:00;95596.34;;;4.11;77.71
41624;BME280;27319;50.306;18.926;2023-12-22T01:00:01;95601.91;;;4.01;79.41
41624;BME280;27319;50.306;18.926;2023-12-22T01:04:02;95601.81;;;4.04;79.32
41624;BME280;27319;50.306;18.926;2023-12-22T01:08:03;95598.78;;;4.02;79.98
41624;BME280;27319;50.306;18.926;2023-12-22T01:12:04;95607.31;;;3.97;79.74
41624;BME280;27319;50.306;18.926;2023-12-22T01:16:05;95607.50;;;3.86;80.05
41624;BME280;27319;50.306;18.926;2023-12-22T01:20:06;95609.88;;;3.81;80.94
41624;BME280;27319;50.306;18.926;2023-12-22T01:24:06;95625.94;;;3.81;81.36
41624;BME280;27319;50.306;18.926;2023-12-22T01:28:07;95637.47;;;3.78;80.98
41624;BME280;27319;50.306;18.926;2023-12-22T01:31:48;95648.53;;;3.80;80.37
41624;BME280;27319;50.306;18.926;2023-12-22T01:34:49;95635.38;;;3.66;80.42
41624;BME280;27319;50.306;18.926;2023-12-22T01:37:51;95638.69;;;3.73;79.29
41624;BME280;27319;50.306;18.926;2023-12-22T01:40:52;95635.78;;;3.64;81.30
41624;BME280;27319;50.306;18.926;2023-12-22T01:43:53;95635.13;;;3.56;81.08
41624;BME280;27319;50.306;18.926;2023-12-22T01:47:14;95622.44;;;3.61;80.39
41624;BME280;27319;50.306;18.926;2023-12-22T01:51:14;95613.25;;;3.62;80.46
41624;BME280;27319;50.306;18.926;2023-12-22T01:55:15;95610.97;;;3.60;80.47
41624;BME280;27319;50.306;18.926;2023-12-22T01:59:16;95611.66;;;3.41;81.24
41624;BME280;27319;50.306;18.926;2023-12-22T02:03:17;95605.44;;;3.24;81.37
41624;BME280;27319;50.306;18.926;2023-12-22T02:07:17;95598.94;;;3.22;81.39
41624;BME280;27319;50.306;18.926;2023-12-22T02:11:18;95594.81;;;3.17;81.61
41624;BME280;27319;50.306;18.926;2023-12-22T02:14:20;95591.72;;;3.18;81.26
41624;BME280;27319;50.306;18.926;2023-12-22T02:17:29;95615.75;;;3.22;81.44
41624;BME280;27319;50.306;18.926;2023-12-22T02:20:30;95611.06;;;3.30;80.30
41624;BME280;27319;50.306;18.926;2023-12-22T02:23:33;95609.09;;;3.07;81.07
41624;BME280;27319;50.306;18.926;2023-12-22T02:26:36;95595.91;;;3.20;80.18
41624;BME280;27319;50.306;18.926;2023-12-22T02:29:45;95604.69;;;3.20;80.01
41624;BME280;27319;50.306;18.926;2023-12-22T02:32:49;95600.47;;;3.23;78.89
41624;BME280;27319;50.306;18.926;2023-12-22T02:35:51;95591.00;;;3.18;78.65
41624;BME280;27319;50.306;18.926;2023-12-22T02:38:54;95589.31;;;3.28;77.20
41624;BME280;27319;50.306;18.926;2023-12-22T02:41:56;95595.41;;;3.28;77.72
41624;BME280;27319;50.306;18.926;2023-12-22T02:45:17;95597.19;;;3.38;74.32
41624;BME280;27319;50.306;18.926;2023-12-22T02:49:17;95610.59;;;3.35;74.94
41624;BME280;27319;50.306;18.926;2023-12-22T02:53:18;95614.41;;;3.37;73.54
41624;BME280;27319;50.306;18.926;2023-12-22T02:57:00;95620.44;;;3.41;73.29
41624;BME280;27319;50.306;18.926;2023-12-22T03:00:01;95623.50;;;3.40;72.55
41624;BME280;27319;50.306;18.926;2023-12-22T03:03:22;95602.19;;;3.36;72.76
41624;BME280;27319;50.306;18.926;2023-12-22T03:07:22;95620.66;;;3.27;72.90
41624;BME280;27319;50.306;18.926;2023-12-22T03:11:23;95615.56;;;3.36;71.87
41624;BME280;27319;50.306;18.926;2023-12-22T03:15:24;95614.00;;;3.39;71.50
41624;BME280;27319;50.306;18.926;2023-12-22T03:19:25;95615.94;;;3.35;69.41
41624;BME280;27319;50.306;18.926;2023-12-22T03:23:26;95620.19;;;3.32;70.34
41624;BME280;27319;50.306;18.926;2023-12-22T03:27:26;95625.91;;;3.34;70.40
41624;BME280;27319;50.306;18.926;2023-12-22T03:31:27;95615.09;;;3.41;67.61
41624;BME280;27319;50.306;18.926;2023-12-22T03:35:08;95603.34;;;3.35;69.44
41624;BME280;27319;50.306;18.926;2023-12-22T03:38:09;95599.97;;;3.31;68.67
41624;BME280;27319;50.306;18.926;2023-12-22T03:41:30;95611.44;;;3.32;69.15
41624;BME280;27319;50.306;18.926;2023-12-22T03:45:30;95608.84;;;3.25;70.80
41624;BME280;27319;50.306;18.926;2023-12-22T03:49:31;95605.31;;;3.31;68.98
41624;BME280;27319;50.306;18.926;2023-12-22T03:53:32;95608.09;;;3.24;70.55
41624;BME280;27319;50.306;18.926;2023-12-22T03:57:33;95608.59;;;3.15;70.64
41624;BME280;27319;50.306;18.926;2023-12-22T04:01:34;95616.72;;;3.08;70.84
41624;BME280;27319;50.306;18.926;2023-12-22T04:05:34;95609.44;;;3.09;71.63
41624;BME280;27319;50.306;18.926;2023-12-22T04:09:36;95589.63;;;3.06;70.29
41624;BME280;27319;50.306;18.926;2023-12-22T04:13:36;95607.34;;;2.97;71.41
41624;BME280;27319;50.306;18.926;2023-12-22T04:17:37;95623.63;;;3.06;70.76
41624;BME280;27319;50.306;18.926;2023-12-22T04:21:38;95647.69;;;3.06;71.17
41624;BME280;27319;50.306;18.926;2023-12-22T04:25:19;95685.81;;;2.46;77.49
41624;BME280;27319;50.306;18.926;2023-12-22T04:28:19;95715.53;;;1.55;82.26
41624;BME280;27319;50.306;18.926;2023-12-22T04:31:36;95696.84;;;0.89;85.39
41624;BME280;27319;50.306;18.926;2023-12-22T04:34:37;95690.44;;;0.65;86.49
41624;BME280;27319;50.306;18.926;2023-12-22T04:37:58;95685.47;;;0.71;85.78
41624;BME280;27319;50.306;18.926;2023-12-22T04:41:39;95692.38;;;0.58;86.13
41624;BME280;27319;50.306;18.926;2023-12-22T04:44:59;95706.06;;;0.67;86.25
41624;BME280;27319;50.306;18.926;2023-12-22T04:49:00;95701.47;;;0.71;86.26
41624;BME280;27319;50.306;18.926;2023-12-22T04:53:01;95709.84;;;0.62;87.10
41624;BME280;27319;50.306;18.926;2023-12-22T04:57:02;95720.56;;;0.45;88.03
41624;BME280;27319;50.306;18.926;2023-12-22T05:01:03;95725.16;;;0.41;88.41
41624;BME280;27319;50.306;18.926;2023-12-22T05:05:03;95739.59;;;0.36;88.59
41624;BME280;27319;50.306;18.926;2023-12-22T05:09:04;95716.38;;;0.47;88.20
41624;BME280;27319;50.306;18.926;2023-12-22T05:12:45;95713.00;;;0.32;87.80
41624;BME280;27319;50.306;18.926;2023-12-22T05:15:46;95707.22;;;0.52;86.34
41624;BME280;27319;50.306;18.926;2023-12-22T05:18:47;95686.34;;;0.47;86.82
41624;BME280;27319;50.306;18.926;2023-12-22T05:21:47;95695.44;;;0.53;86.06
41624;BME280;27319;50.306;18.926;2023-12-22T05:24:50;95696.19;;;0.50;85.70
41624;BME280;27319;50.306;18.926;2023-12-22T05:28:10;95694.69;;;0.42;86.26
41624;BME280;27319;50.306;18.926;2023-12-22T05:31:51;95679.06;;;0.58;85.54
41624;BME280;27319;50.306;18.926;2023-12-22T05:34:55;95675.63;;;0.61;84.98
41624;BME280;27319;50.306;18.926;2023-12-22T05:38:16;95690.06;;;0.70;83.34
41624;BME280;27319;50.306;18.926;2023-12-22T05:42:17;95676.38;;;0.65;84.32
41624;BME280;27319;50.306;18.926;2023-12-22T05:46:17;95678.63;;;0.70;83.24
41624;BME280;27319;50.306;18.926;2023-12-22T05:50:18;95673.31;;;0.70;83.51
41624;BME280;27319;50.306;18.926;2023-12-22T05:54:19;95674.13;;;0.60;83.06
41624;BME280;27319;50.306;18.926;2023-12-22T05:58:20;95684.34;;;0.72;82.08
41624;BME280;27319;50.306;18.926;2023-12-22T06:02:21;95683.19;;;0.73;81.97
41624;BME280;27319;50.306;18.926;2023-12-22T06:06:22;95690.81;;;0.71;80.93
41624;BME280;27319;50.306;18.926;2023-12-22T06:10:23;95700.72;;;0.63;80.82
41624;BME280;27319;50.306;18.926;2023-12-22T06:13:38;95693.84;;;0.73;79.14
41624;BME280;27319;50.306;18.926;2023-12-22T06:16:59;95700.69;;;0.77;80.08
41624;BME280;27319;50.306;18.926;2023-12-22T06:21:00;95699.50;;;0.86;79.12
41624;BME280;27319;50.306;18.926;2023-12-22T06:25:01;95708.25;;;0.86;78.42
41624;BME280;27319;50.306;18.926;2023-12-22T06:29:01;95694.59;;;0.77;79.61
41624;BME280;27319;50.306;18.926;2023-12-22T06:33:02;95709.81;;;0.76;80.92
41624;BME280;27319;50.306;18.926;2023-12-22T06:37:03;95735.66;;;0.83;80.61
41624;BME280;27319;50.306;18.926;2023-12-22T06:41:03;95739.50;;;0.71;81.40
41624;BME280;27319;50.306;18.926;2023-12-22T06:44:44;95738.00;;;0.67;80.65
41624;BME280;27319;50.306;18.926;2023-12-22T06:48:05;95739.91;;;0.63;81.60
41624;BME280;27319;50.306;18.926;2023-12-22T06:52:06;95741.88;;;0.45;82.35
41624;BME280;27319;50.306;18.926;2023-12-22T06:56:02;95732.72;;;0.49;82.56
41624;BME280;27319;50.306;18.926;2023-12-22T07:00:03;95743.00;;;0.51;82.09
41624;BME280;27319;50.306;18.926;2023-12-22T07:04:03;95746.44;;;0.48;83.42
41624;BME280;27319;50.306;18.926;2023-12-22T07:08:04;95737.69;;;0.40;83.75
41624;BME280;27319;50.306;18.926;2023-12-22T07:12:05;95728.19;;;0.35;84.26
41624;BME280;27319;50.306;18.926;2023-12-22T07:16:06;95738.81;;;0.46;83.95
41624;BME280;27319;50.306;18.926;2023-12-22T07:20:07;95744.13;;;0.43;84.33
41624;BME280;27319;50.306;18.926;2023-12-22T07:24:08;95758.59;;;0.52;83.77
41624;BME280;27319;50.306;18.926;2023-12-22T07:28:09;95759.75;;;0.48;84.29
41624;BME280;27319;50.306;18.926;2023-12-22T07:32:09;95746.44;;;0.37;84.45
41624;BME280;27319;50.306;18.926;2023-12-22T07:36:10;95747.97;;;0.27;84.64
41624;BME280;27319;50.306;18.926;2023-12-22T07:40:11;95775.34;;;0.31;85.07
41624;BME280;27319;50.306;18.926;2023-12-22T07:44:12;95763.94;;;0.31;84.66
41624;BME280;27319;50.306;18.926;2023-12-22T07:48:13;95775.31;;;0.35;84.26
41624;BME280;27319;50.306;18.926;2023-12-22T07:52:13;95781.03;;;0.58;83.10
41624;BME280;27319;50.306;18.926;2023-12-22T07:56:14;95792.44;;;0.59;83.96
41624;BME280;27319;50.306;18.926;2023-12-22T08:00:15;95783.69;;;0.51;84.76
41624;BME280;27319;50.306;18.926;2023-12-22T08:04:16;95782.94;;;0.51;84.71
41624;BME280;27319;50.306;18.926;2023-12-22T08:08:17;95782.94;;;0.61;84.98
41624;BME280;27319;50.306;18.926;2023-12-22T08:12:17;95784.81;;;0.57;84.71
41624;BME280;27319;50.306;18.926;2023-12-22T08:16:18;95788.22;;;0.72;83.37
41624;BME280;27319;50.306;18.926;2023-12-22T08:20:19;95793.94;;;0.67;83.54
41624;BME280;27319;50.306;18.926;2023-12-22T08:24:00;95804.22;;;0.65;83.55
41624;BME280;27319;50.306;18.926;2023-12-22T08:27:20;95808.03;;;0.64;84.22
41624;BME280;27319;50.306;18.926;2023-12-22T08:31:21;95839.59;;;0.65;84.07
41624;BME280;27319;50.306;18.926;2023-12-22T08:35:22;95837.69;;;0.66;85.27
41624;BME280;27319;50.306;18.926;2023-12-22T08:39:23;95824.00;;;0.67;85.72
41624;BME280;27319;50.306;18.926;2023-12-22T08:43:24;95803.44;;;0.75;85.20
41624;BME280;27319;50.306;18.926;2023-12-22T08:47:24;95798.09;;;0.86;84.73
41624;BME280;27319;50.306;18.926;2023-12-22T08:51:25;95798.84;;;0.90;84.36
41624;BME280;27319;50.306;18.926;2023-12-22T08:55:26;95802.63;;;0.92;83.65
41624;BME280;27319;50.306;18.926;2023-12-22T08:59:26;95789.28;;;0.99;83.58
41624;BME280;27319;50.306;18.926;2023-12-22T09:03:27;95788.19;;;0.97;84.13
41624;BME280;27319;50.306;18.926;2023-12-22T09:07:28;95770.63;;;1.06;82.91
41624;BME280;27319;50.306;18.926;2023-12-22T09:11:32;95761.44;;;1.22;82.22
41624;BME280;27319;50.306;18.926;2023-12-22T09:15:33;95793.41;;;1.22;81.34
41624;BME280;27319;50.306;18.926;2023-12-22T09:19:33;95791.16;;;1.16;81.88
41624;BME280;27319;50.306;18.926;2023-12-22T09:23:34;95790.38;;;1.19;81.99
41624;BME280;27319;50.306;18.926;2023-12-22T09:27:35;95773.22;;;1.24;82.27
41624;BME280;27319;50.306;18.926;2023-12-22T09:31:36;95781.19;;;1.31;81.05
41624;BME280;27319;50.306;18.926;2023-12-22T09:35:37;95791.81;;;1.42;81.63
41624;BME280;27319;50.306;18.926;2023-12-22T09:39:38;95792.56;;;1.39;81.46
41624;BME280;27319;50.306;18.926;2023-12-22T09:43:38;95802.44;;;1.45;80.40
41624;BME280;27319;50.306;18.926;2023-12-22T09:47:41;95804.38;;;1.45;81.52
41624;BME280;27319;50.306;18.926;2023-12-22T09:51:40;95804.72;;;1.47;80.93
41624;BME280;27319;50.306;18.926;2023-12-22T09:55:43;95797.06;;;1.52;80.83
41624;BME280;27319;50.306;18.926;2023-12-22T09:59:42;95795.03;;;1.81;79.52
41624;BME280;27319;50.306;18.926;2023-12-22T10:03:43;95781.28;;;1.86;79.01
41624;BME280;27319;50.306;18.926;2023-12-22T10:07:44;95757.91;;;2.01;77.20
41624;BME280;27319;50.306;18.926;2023-12-22T10:11:45;95761.63;;;2.14;76.83
41624;BME280;27319;50.306;18.926;2023-12-22T10:15:45;95753.19;;;2.19;75.08
41624;BME280;27319;50.306;18.926;2023-12-22T10:19:48;95739.16;;;2.12;77.21
41624;BME280;27319;50.306;18.926;2023-12-22T10:23:49;95747.81;;;2.23;74.74
41624;BME280;27319;50.306;18.926;2023-12-22T10:27:51;95754.72;;;2.17;74.40
41624;BME280;27319;50.306;18.926;2023-12-22T10:31:51;95755.31;;;1.90;75.96
41624;BME280;27319;50.306;18.926;2023-12-22T10:35:53;95766.53;;;1.64;78.76
41624;BME280;27319;50.306;18.926;2023-12-22T10:39:52;95809.03;;;1.19;83.60
41624;BME280;27319;50.306;18.926;2023-12-22T10:43:56;95795.03;;;0.84;86.15
41624;BME280;27319;50.306;18.926;2023-12-22T10:47:57;95798.88;;;0.79;86.75
41624;BME280;27319;50.306;18.926;2023-12-22T10:51:57;95782.09;;;0.89;87.17
41624;BME280;27319;50.306;18.926;2023-12-22T10:55:58;95779.47;;;0.82;86.39
41624;BME280;27319;50.306;18.926;2023-12-22T10:59:59;95781.72;;;0.87;85.91
41624;BME280;27319;50.306;18.926;2023-12-22T11:04:03;95769.16;;;0.84;85.53
41624;BME280;27319;50.306;18.926;2023-12-22T11:08:04;95760.75;;;1.00;84.92
41624;BME280;27319;50.306;18.926;2023-12-22T11:12:04;95758.41;;;1.12;84.58
41624;BME280;27319;50.306;18.926;2023-12-22T11:16:05;95770.66;;;0.92;84.20
41624;BME280;27319;50.306;18.926;2023-12-22T11:20:07;95756.94;;;0.97;85.19
41624;BME280;27319;50.306;18.926;2023-12-22T11:24:07;95764.94;;;0.90;85.50
41624;BME280;27319;50.306;18.926;2023-12-22T11:27:28;95767.22;;;0.99;85.81
41624;BME280;27319;50.306;18.926;2023-12-22T11:31:30;95777.47;;;1.07;86.04
41624;BME280;27319;50.306;18.926;2023-12-22T11:35:10;95776.59;;;1.32;85.73
41624;BME280;27319;50.306;18.926;2023-12-22T11:38:31;95768.59;;;1.32;85.89
41624;BME280;27319;50.306;18.926;2023-12-22T11:42:33;95764.41;;;1.34;85.78
41624;BME280;27319;50.306;18.926;2023-12-22T11:46:33;95753.38;;;1.32;85.70
41624;BME280;27319;50.306;18.926;2023-12-22T11:50:34;95738.50;;;1.38;85.08
41624;BME280;27319;50.306;18.926;2023-12-22T11:54:47;95727.78;;;1.45;85.19
41624;BME280;27319;50.306;18.926;2023-12-22T11:58:57;95736.88;;;1.55;84.22
41624;BME280;27319;50.306;18.926;2023-12-22T12:02:25;95738.00;;;1.57;83.71
41624;BME280;27319;50.306;18.926;2023-12-22T12:10:10;95732.16;;;1.73;82.84
41624;BME280;27319;50.306;18.926;2023-12-22T12:14:10;95723.28;;;1.90;81.84
41624;BME280;27319;50.306;18.926;2023-12-22T12:18:11;95720.56;;;1.97;80.63
41624;BME280;27319;50.306;18.926;2023-12-22T12:22:14;95716.38;;;1.96;80.35
41624;BME280;27319;50.306;18.926;2023-12-22T12:26:15;95708.31;;;2.04;79.48
41624;BME280;27319;50.306;18.926;2023-12-22T12:30:16;95723.50;;;2.10;77.63
41624;BME280;27319;50.306;18.926;2023-12-22T12:34:17;95703.34;;;2.06;77.64
41624;BME280;27319;50.306;18.926;2023-12-22T12:38:18;95701.47;;;2.03;76.63
41624;BME280;27319;50.306;18.926;2023-12-22T12:42:19;95709.09;;;2.01;76.80
41624;BME280;27319;50.306;18.926;2023-12-22T12:46:22;95708.72;;;2.02;73.89
41624;BME280;27319;50.306;18.926;2023-12-22T12:49:43;95715.19;;;2.05;73.47
41624;BME280;27319;50.306;18.926;2023-12-22T12:53:44;95737.94;;;2.20;73.58
41624;BME280;27319;50.306;18.926;2023-12-22T12:57:45;95739.28;;;2.38;72.59
41624;BME280;27319;50.306;18.926;2023-12-22T13:01:26;95739.34;;;2.35;73.25
41624;BME280;27319;50.306;18.926;2023-12-22T13:04:46;95749.94;;;2.42;70.27
41624;BME280;27319;50.306;18.926;2023-12-22T13:08:53;95746.16;;;2.40;69.48
41624;BME280;27319;50.306;18.926;2023-12-22T13:12:32;95753.41;;;2.39;67.33
41624;BME280;27319;50.306;18.926;2023-12-22T13:15:53;95768.34;;;2.33;67.93
41624;BME280;27319;50.306;18.926;2023-12-22T13:19:33;95773.00;;;2.22;69.13
41624;BME280;27319;50.306;18.926;2023-12-22T13:22:34;95761.53;;;2.25;65.34
41624;BME280;27319;50.306;18.926;2023-12-22T13:26:01;95773.00;;;2.22;65.03
41624;BME280;27319;50.306;18.926;2023-12-22T13:30:02;95777.19;;;2.23;64.76
41624;BME280;27319;50.306;18.926;2023-12-22T13:34:03;95779.81;;;2.30;64.93
41624;BME280;27319;50.306;18.926;2023-12-22T13:37:44;95769.13;;;2.30;65.26
41624;BME280;27319;50.306;18.926;2023-12-22T13:41:06;95776.75;;;2.31;65.97
41624;BME280;27319;50.306;18.926;2023-12-22T13:45:01;95759.28;;;2.64;65.93
41624;BME280;27319;50.306;18.926;2023-12-22T13:48:21;95754.56;;;2.38;66.29
41624;BME280;27319;50.306;18.926;2023-12-22T13:52:03;95745.41;;;2.35;65.46
41624;BME280;27319;50.306;18.926;2023-12-22T13:56:04;95745.41;;;2.39;64.38
41624;BME280;27319;50.306;18.926;2023-12-22T14:04:01;95759.25;;;2.27;65.21
41624;BME280;27319;50.306;18.926;2023-12-22T14:08:05;95748.13;;;2.32;62.18
41624;BME280;27319;50.306;18.926;2023-12-22T14:11:28;95780.56;;;2.34;62.59
41624;BME280;27319;50.306;18.926;2023-12-22T14:14:52;95768.41;;;2.26;62.46
41624;BME280;27319;50.306;18.926;2023-12-22T14:18:53;95756.50;;;2.34;61.00
41624;BME280;27319;50.306;18.926;2023-12-22T14:22:54;95777.50;;;2.32;61.32
41624;BME280;27319;50.306;18.926;2023-12-22T14:26:52;95773.31;;;2.31;61.66
41624;BME280;27319;50.306;18.926;2023-12-22T14:30:13;95766.13;;;2.24;61.86
41624;BME280;27319;50.306;18.926;2023-12-22T14:34:13;95762.25;;;2.29;61.05
41624;BME280;27319;50.306;18.926;2023-12-22T14:37:54;95776.84;;;2.21;62.23
41624;BME280;27319;50.306;18.926;2023-12-22T14:41:15;95768.47;;;2.19;62.64
41624;BME280;27319;50.306;18.926;2023-12-22T14:45:16;95768.50;;;2.12;62.38
41624;BME280;27319;50.306;18.926;2023-12-22T14:49:17;95773.88;;;2.08;63.07
41624;BME280;27319;50.306;18.926;2023-12-22T14:53:17;95786.44;;;2.08;63.35
41624;BME280;27319;50.306;18.926;2023-12-22T14:57:18;95789.06;;;2.15;62.27
41624;BME280;27319;50.306;18.926;2023-12-22T15:00:40;95789.88;;;2.12;63.02
41624;BME280;27319;50.306;18.926;2023-12-22T15:03:41;95786.06;;;2.09;63.27
41624;BME280;27319;50.306;18.926;2023-12-22T15:06:42;95782.63;;;2.12;61.81
41624;BME280;27319;50.306;18.926;2023-12-22T15:10:04;95780.28;;;2.18;62.37
41624;BME280;27319;50.306;18.926;2023-12-22T15:14:01;95780.81;;;1.98;62.62
41624;BME280;27319;50.306;18.926;2023-12-22T15:18:02;95788.06;;;1.94;62.94
41624;BME280;27319;50.306;18.926;2023-12-22T15:21:22;95777.66;;;2.11;60.60
41624;BME280;27319;50.306;18.926;2023-12-22T15:24:44;95775.44;;;2.02;61.73
41624;BME280;27319;50.306;18.926;2023-12-22T15:28:25;95796.81;;;1.98;62.35
41624;BME280;27319;50.306;18.926;2023-12-22T15:31:49;95785.34;;;2.02;60.95
41624;BME280;27319;50.306;18.926;2023-12-22T15:35:53;95788.34;;;2.11;59.55
41624;BME280;27319;50.306;18.926;2023-12-22T15:39:50;95789.88;;;2.08;60.89
41624;BME280;27319;50.306;18.926;2023-12-22T15:43:51;95805.88;;;2.12;60.01
41624;BME280;27319;50.306;18.926;2023-12-22T15:47:32;95792.22;;;2.03;61.97
41624;BME280;27319;50.306;18.926;2023-12-22T15:50:33;95792.94;;;2.10;59.55
41624;BME280;27319;50.306;18.926;2023-12-22T15:53:37;95802.88;;;2.06;60.75
41624;BME280;27319;50.306;18.926;2023-12-22T15:56:58;95815.72;;;2.70;61.92
41624;BME280;27319;50.306;18.926;2023-12-22T16:01:01;95814.94;;;2.25;60.33
41624;BME280;27319;50.306;18.926;2023-12-22T16:05:02;95810.91;;;2.03;61.62
41624;BME280;27319;50.306;18.926;2023-12-22T16:09:03;95819.66;;;2.07;60.33
41624;BME280;27319;50.306;18.926;2023-12-22T16:13:04;95814.66;;;2.09;60.59
41624;BME280;27319;50.306;18.926;2023-12-22T16:16:45;95815.13;;;2.00;60.35
41624;BME280;27319;50.306;18.926;2023-12-22T16:20:06;95815.09;;;2.04;60.46
41624;BME280;27319;50.306;18.926;2023-12-22T16:24:07;95830.72;;;2.02;59.89
41624;BME280;27319;50.306;18.926;2023-12-22T16:28:07;95816.66;;;1.97;60.79
41624;BME280;27319;50.306;18.926;2023-12-22T16:32:08;95830.44;;;1.92;60.88
41624;BME280;27319;50.306;18.926;2023-12-22T16:35:44;95833.44;;;1.94;60.55
41624;BME280;27319;50.306;18.926;2023-12-22T16:39:48;95833.47;;;1.87;61.85
41624;BME280;27319;50.306;18.926;2023-12-22T16:43:48;95839.63;;;1.81;62.24
41624;BME280;27319;50.306;18.926;2023-12-22T16:47:49;95839.63;;;1.81;62.25
41624;BME280;27319;50.306;18.926;2023-12-22T16:51:50;95853.41;;;1.72;62.55
41624;BME280;27319;50.306;18.926;2023-12-22T16:55:50;95861.03;;;1.70;63.96
41624;BME280;27319;50.306;18.926;2023-12-22T16:59:51;95858.75;;;1.72;63.31
41624;BME280;27319;50.306;18.926;2023-12-22T17:03:52;95854.13;;;1.76;63.80
41624;BME280;27319;50.306;18.926;2023-12-22T17:07:53;95867.44;;;1.83;62.38
41624;BME280;27319;50.306;18.926;2023-12-22T17:11:54;95854.09;;;1.83;62.59
41624;BME280;27319;50.306;18.926;2023-12-22T17:15:55;95854.06;;;1.90;61.74
41624;BME280;27319;50.306;18.926;2023-12-22T17:19:55;95877.72;;;1.88;62.49
41624;BME280;27319;50.306;18.926;2023-12-22T17:23:56;95862.47;;;1.85;63.16
41624;BME280;27319;50.306;18.926;2023-12-22T17:27:57;95870.84;;;1.91;62.69
41624;BME280;27319;50.306;18.926;2023-12-22T17:31:58;95875.41;;;1.90;62.42
41624;BME280;27319;50.306;18.926;2023-12-22T17:35:53;95875.38;;;1.94;62.42
41624;BME280;27319;50.306;18.926;2023-12-22T17:39:54;95870.13;;;1.83;64.26
41624;BME280;27319;50.306;18.926;2023-12-22T17:43:56;95870.91;;;1.73;63.92
41624;BME280;27319;50.306;18.926;2023-12-22T17:47:57;95875.91;;;1.71;64.75
41624;BME280;27319;50.306;18.926;2023-12-22T17:51:57;95887.66;;;1.84;63.80
41624;BME280;27319;50.306;18.926;2023-12-22T17:55:59;95888.81;;;1.76;64.72
41624;BME280;27319;50.306;18.926;2023-12-22T18:00:01;95906.75;;;1.76;63.84
41624;BME280;27319;50.306;18.926;2023-12-22T18:03:51;95887.69;;;1.77;64.43
41624;BME280;27319;50.306;18.926;2023-12-22T18:07:14;95887.75;;;1.56;64.58
41624;BME280;27319;50.306;18.926;2023-12-22T18:11:15;95883.91;;;1.68;64.35
41624;BME280;27319;50.306;18.926;2023-12-22T18:15:16;95887.75;;;1.63;64.07
41624;BME280;27319;50.306;18.926;2023-12-22T18:19:17;95888.16;;;1.58;64.57
41624;BME280;27319;50.306;18.926;2023-12-22T18:23:18;95891.56;;;1.55;65.17
41624;BME280;27319;50.306;18.926;2023-12-22T18:27:18;95908.28;;;1.66;64.85
41624;BME280;27319;50.306;18.926;2023-12-22T18:31:14;95910.25;;;1.55;65.62
41624;BME280;27319;50.306;18.926;2023-12-22T18:35:16;95903.75;;;1.52;65.86
41624;BME280;27319;50.306;18.926;2023-12-22T18:39:16;95896.53;;;1.53;65.63
41624;BME280;27319;50.306;18.926;2023-12-22T18:43:17;95888.91;;;1.58;65.23
41624;BME280;27319;50.306;18.926;2023-12-22T18:47:18;95883.19;;;1.53;65.65
41624;BME280;27319;50.306;18.926;2023-12-22T18:51:19;95868.31;;;1.55;65.57
41624;BME280;27319;50.306;18.926;2023-12-22T18:54:54;95868.69;;;1.61;64.96
41624;BME280;27319;50.306;18.926;2023-12-22T18:58:55;95865.28;;;1.53;65.38
41624;BME280;27319;50.306;18.926;2023-12-22T19:02:57;95873.31;;;1.50;66.10
41624;BME280;27319;50.306;18.926;2023-12-22T19:06:57;95867.63;;;1.44;67.51
41624;BME280;27319;50.306;18.926;2023-12-22T19:10:58;95876.75;;;1.43;68.57
41624;BME280;27319;50.306;18.926;2023-12-22T19:14:59;95876.00;;;1.39;69.57
41624;BME280;27319;50.306;18.926;2023-12-22T19:19:00;95877.13;;;1.45;69.17
41624;BME280;27319;50.306;18.926;2023-12-22T19:23:00;95883.97;;;1.50;69.34
41624;BME280;27319;50.306;18.926;2023-12-22T19:27:01;95891.22;;;1.42;69.85
41624;BME280;27319;50.306;18.926;2023-12-22T19:31:02;95887.78;;;1.49;69.30
41624;BME280;27319;50.306;18.926;2023-12-22T19:35:03;95899.25;;;1.42;69.91
41624;BME280;27319;50.306;18.926;2023-12-22T19:38:44;95897.72;;;1.45;68.79
41624;BME280;27319;50.306;18.926;2023-12-22T19:42:05;95918.28;;;1.51;67.92
41624;BME280;27319;50.306;18.926;2023-12-22T19:46:05;95926.66;;;1.50;67.67
41624;BME280;27319;50.306;18.926;2023-12-22T19:50:07;95932.38;;;1.48;68.34
41624;BME280;27319;50.306;18.926;2023-12-22T19:54:07;95925.91;;;1.42;68.64
41624;BME280;27319;50.306;18.926;2023-12-22T19:58:08;95926.31;;;1.34;68.78
41624;BME280;27319;50.306;18.926;2023-12-22T20:02:08;95914.50;;;1.28;69.32
41624;BME280;27319;50.306;18.926;2023-12-22T20:05:50;95914.50;;;1.28;68.81
41624;BME280;27319;50.306;18.926;2023-12-22T20:08:51;95909.19;;;1.21;69.17
41624;BME280;27319;50.306;18.926;2023-12-22T20:11:55;95910.72;;;1.14;69.47
41624;BME280;27319;50.306;18.926;2023-12-22T20:15:17;95901.22;;;1.10;69.74
41624;BME280;27319;50.306;18.926;2023-12-22T20:18:58;95906.94;;;1.08;69.43